sensor_id;sensor_type;location;lat;lon;timestamp;P1;durP1;ratioP1;P2;durP2;ratioP2
70806;SDS011;58882;52.170;5.386;2022-11-15T00:00:05;20.70;;;10.20;;
70806;SDS011;58882;52.170;5.386;2022-11-15T00:03:05;22.88;;;10.35;;
70806;SDS011;58882;52.170;5.386;2022-11-15T00:06:17;20.80;;;10.15;;
70806;SDS011;58882;52.170;5.386;2022-11-15T00:09:09;27.48;;;11.13;;
70806;SDS011;58882;52.170;5.386;2022-11-15T00:12:21;24.42;;;10.77;;
70806;SDS011;58882;52.170;5.386;2022-11-15T00:15:13;24.02;;;11.30;;
70806;SDS011;58882;52.170;5.386;2022-11-15T00:18:25;25.75;;;11.35;;
70806;SDS011;58882;52.170;5.386;2022-11-15T00:21:18;25.55;;;11.90;;
70806;SDS011;58882;52.170;5.386;2022-11-15T00:24:30;26.35;;;11.77;;
70806;SDS011;58882;52.170;5.386;2022-11-15T00:27:22;27.42;;;11.60;;
70806;SDS011;58882;52.170;5.386;2022-11-15T00:30:35;26.17;;;12.07;;
70806;SDS011;58882;52.170;5.386;2022-11-15T00:33:27;25.48;;;11.43;;
70806;SDS011;58882;52.170;5.386;2022-11-15T00:36:39;26.60;;;11.80;;
70806;SDS011;58882;52.170;5.386;2022-11-15T00:39:31;27.50;;;11.60;;
70806;SDS011;58882;52.170;5.386;2022-11-15T00:42:43;35.00;;;12.73;;
70806;SDS011;58882;52.170;5.386;2022-11-15T00:45:42;33.08;;;13.95;;
70806;SDS011;58882;52.170;5.386;2022-11-15T00:48:48;28.75;;;12.00;;
70806;SDS011;58882;52.170;5.386;2022-11-15T00:51:47;33.03;;;12.95;;
70806;SDS011;58882;52.170;5.386;2022-11-15T00:54:52;34.10;;;13.02;;
70806;SDS011;58882;52.170;5.386;2022-11-15T00:57:51;31.83;;;13.15;;
70806;SDS011;58882;52.170;5.386;2022-11-15T01:00:56;31.48;;;12.70;;
70806;SDS011;58882;52.170;5.386;2022-11-15T01:04:03;31.33;;;12.82;;
70806;SDS011;58882;52.170;5.386;2022-11-15T01:07:15;30.35;;;12.40;;
70806;SDS011;58882;52.170;5.386;2022-11-15T01:10:14;33.22;;;13.25;;
70806;SDS011;58882;52.170;5.386;2022-11-15T01:13:18;32.92;;;12.77;;
70806;SDS011;58882;52.170;5.386;2022-11-15T01:16:17;30.50;;;13.63;;
70806;SDS011;58882;52.170;5.386;2022-11-15T01:22:22;33.25;;;12.63;;
70806;SDS011;58882;52.170;5.386;2022-11-15T01:25:27;29.17;;;12.55;;
70806;SDS011;58882;52.170;5.386;2022-11-15T01:28:29;33.17;;;13.25;;
70806;SDS011;58882;52.170;5.386;2022-11-15T01:31:35;33.67;;;12.77;;
70806;SDS011;58882;52.170;5.386;2022-11-15T01:34:34;31.88;;;12.45;;
70806;SDS011;58882;52.170;5.386;2022-11-15T01:37:46;30.98;;;13.05;;
70806;SDS011;58882;52.170;5.386;2022-11-15T01:40:58;31.48;;;12.27;;
70806;SDS011;58882;52.170;5.386;2022-11-15T01:44:25;32.80;;;12.10;;
70806;SDS011;58882;52.170;5.386;2022-11-15T01:47:43;28.85;;;12.43;;
70806;SDS011;58882;52.170;5.386;2022-11-15T01:53:51;26.25;;;10.90;;
70806;SDS011;58882;52.170;5.386;2022-11-15T01:56:54;31.63;;;12.23;;
70806;SDS011;58882;52.170;5.386;2022-11-15T01:59:58;26.25;;;11.98;;
70806;SDS011;58882;52.170;5.386;2022-11-15T02:03:06;29.55;;;12.02;;
70806;SDS011;58882;52.170;5.386;2022-11-15T02:06:05;29.02;;;12.23;;
70806;SDS011;58882;52.170;5.386;2022-11-15T02:09:10;26.17;;;12.05;;
70806;SDS011;58882;52.170;5.386;2022-11-15T02:12:10;29.52;;;11.95;;
70806;SDS011;58882;52.170;5.386;2022-11-15T02:15:17;28.30;;;12.55;;
70806;SDS011;58882;52.170;5.386;2022-11-15T02:18:24;31.85;;;12.77;;
70806;SDS011;58882;52.170;5.386;2022-11-15T02:21:37;27.23;;;12.27;;
70806;SDS011;58882;52.170;5.386;2022-11-15T02:28:11;29.92;;;12.35;;
70806;SDS011;58882;52.170;5.386;2022-11-15T02:35:17;28.40;;;12.60;;
70806;SDS011;58882;52.170;5.386;2022-11-15T02:38:17;28.25;;;12.65;;
70806;SDS011;58882;52.170;5.386;2022-11-15T02:41:40;26.35;;;12.60;;
70806;SDS011;58882;52.170;5.386;2022-11-15T02:45:01;26.48;;;12.48;;
70806;SDS011;58882;52.170;5.386;2022-11-15T02:48:09;28.88;;;12.57;;
70806;SDS011;58882;52.170;5.386;2022-11-15T02:51:10;24.65;;;11.48;;
70806;SDS011;58882;52.170;5.386;2022-11-15T02:54:19;24.50;;;11.57;;
70806;SDS011;58882;52.170;5.386;2022-11-15T02:57:22;29.83;;;12.18;;
70806;SDS011;58882;52.170;5.386;2022-11-15T03:00:59;25.63;;;11.93;;
70806;SDS011;58882;52.170;5.386;2022-11-15T03:11:11;27.25;;;12.27;;
70806;SDS011;58882;52.170;5.386;2022-11-15T03:14:29;23.98;;;11.32;;
70806;SDS011;58882;52.170;5.386;2022-11-15T03:17:29;27.63;;;12.68;;
70806;SDS011;58882;52.170;5.386;2022-11-15T03:20:46;24.83;;;12.13;;
70806;SDS011;58882;52.170;5.386;2022-11-15T03:23:46;23.88;;;11.70;;
70806;SDS011;58882;52.170;5.386;2022-11-15T03:26:59;24.73;;;11.70;;
70806;SDS011;58882;52.170;5.386;2022-11-15T03:30:01;25.40;;;11.70;;
70806;SDS011;58882;52.170;5.386;2022-11-15T03:33:08;24.95;;;12.20;;
70806;SDS011;58882;52.170;5.386;2022-11-15T03:36:08;25.02;;;11.60;;
70806;SDS011;58882;52.170;5.386;2022-11-15T03:39:21;22.73;;;11.60;;
70806;SDS011;58882;52.170;5.386;2022-11-15T03:45:55;25.73;;;11.63;;
70806;SDS011;58882;52.170;5.386;2022-11-15T03:49:40;24.52;;;11.80;;
70806;SDS011;58882;52.170;5.386;2022-11-15T03:52:33;24.85;;;12.27;;
70806;SDS011;58882;52.170;5.386;2022-11-15T03:55:45;28.48;;;13.00;;
70806;SDS011;58882;52.170;5.386;2022-11-15T03:58:37;23.98;;;11.32;;
70806;SDS011;58882;52.170;5.386;2022-11-15T04:01:49;25.88;;;11.73;;
70806;SDS011;58882;52.170;5.386;2022-11-15T04:04:41;24.00;;;11.88;;
70806;SDS011;58882;52.170;5.386;2022-11-15T04:07:52;23.35;;;10.68;;
70806;SDS011;58882;52.170;5.386;2022-11-15T04:14:00;22.95;;;10.52;;
70806;SDS011;58882;52.170;5.386;2022-11-15T04:16:59;21.60;;;11.40;;
70806;SDS011;58882;52.170;5.386;2022-11-15T04:20:16;22.52;;;11.85;;
70806;SDS011;58882;52.170;5.386;2022-11-15T04:23:29;21.23;;;10.70;;
70806;SDS011;58882;52.170;5.386;2022-11-15T04:26:58;21.73;;;11.07;;
70806;SDS011;58882;52.170;5.386;2022-11-15T04:29:51;21.63;;;11.00;;
70806;SDS011;58882;52.170;5.386;2022-11-15T04:33:03;25.30;;;10.73;;
70806;SDS011;58882;52.170;5.386;2022-11-15T04:35:55;20.70;;;10.60;;
70806;SDS011;58882;52.170;5.386;2022-11-15T04:39:25;22.05;;;10.65;;
70806;SDS011;58882;52.170;5.386;2022-11-15T04:42:24;21.92;;;11.65;;
70806;SDS011;58882;52.170;5.386;2022-11-15T04:45:29;21.77;;;10.60;;
70806;SDS011;58882;52.170;5.386;2022-11-15T04:48:21;21.65;;;10.75;;
70806;SDS011;58882;52.170;5.386;2022-11-15T04:51:33;22.70;;;10.30;;
70806;SDS011;58882;52.170;5.386;2022-11-15T04:54:25;20.15;;;10.68;;
70806;SDS011;58882;52.170;5.386;2022-11-15T04:57:37;24.85;;;10.30;;
70806;SDS011;58882;52.170;5.386;2022-11-15T05:00:36;20.52;;;11.10;;
70806;SDS011;58882;52.170;5.386;2022-11-15T05:03:41;18.05;;;10.32;;
70806;SDS011;58882;52.170;5.386;2022-11-15T05:06:59;24.33;;;10.77;;
70806;SDS011;58882;52.170;5.386;2022-11-15T05:13:17;17.65;;;9.68;;
70806;SDS011;58882;52.170;5.386;2022-11-15T05:16:16;19.13;;;10.20;;
70806;SDS011;58882;52.170;5.386;2022-11-15T05:19:29;18.13;;;10.05;;
70806;SDS011;58882;52.170;5.386;2022-11-15T05:22:21;17.50;;;9.63;;
70806;SDS011;58882;52.170;5.386;2022-11-15T05:25:35;21.13;;;10.05;;
70806;SDS011;58882;52.170;5.386;2022-11-15T05:28:27;20.63;;;10.50;;
70806;SDS011;58882;52.170;5.386;2022-11-15T05:31:40;20.73;;;10.25;;
70806;SDS011;58882;52.170;5.386;2022-11-15T05:34:40;18.20;;;10.13;;
70806;SDS011;58882;52.170;5.386;2022-11-15T05:40:45;19.00;;;10.38;;
70806;SDS011;58882;52.170;5.386;2022-11-15T05:43:50;19.42;;;10.18;;
70806;SDS011;58882;52.170;5.386;2022-11-15T05:46:50;19.60;;;10.25;;
70806;SDS011;58882;52.170;5.386;2022-11-15T05:49:57;18.33;;;10.23;;
70806;SDS011;58882;52.170;5.386;2022-11-15T05:52:56;22.65;;;11.23;;
70806;SDS011;58882;52.170;5.386;2022-11-15T05:56:03;18.63;;;9.52;;
70806;SDS011;58882;52.170;5.386;2022-11-15T05:59:03;18.85;;;10.07;;
70806;SDS011;58882;52.170;5.386;2022-11-15T06:02:15;17.70;;;9.73;;
70806;SDS011;58882;52.170;5.386;2022-11-15T06:05:07;19.23;;;9.45;;
70806;SDS011;58882;52.170;5.386;2022-11-15T06:08:19;18.27;;;10.02;;
70806;SDS011;58882;52.170;5.386;2022-11-15T06:11:18;17.90;;;10.25;;
70806;SDS011;58882;52.170;5.386;2022-11-15T06:14:30;19.55;;;10.57;;
70806;SDS011;58882;52.170;5.386;2022-11-15T06:17:22;20.17;;;10.50;;
70806;SDS011;58882;52.170;5.386;2022-11-15T06:20:35;18.98;;;9.52;;
70806;SDS011;58882;52.170;5.386;2022-11-15T06:23:27;20.80;;;9.57;;
70806;SDS011;58882;52.170;5.386;2022-11-15T06:26:42;22.15;;;10.60;;
70806;SDS011;58882;52.170;5.386;2022-11-15T06:29:41;21.05;;;10.13;;
70806;SDS011;58882;52.170;5.386;2022-11-15T06:33:00;19.73;;;9.85;;
70806;SDS011;58882;52.170;5.386;2022-11-15T06:35:53;18.33;;;9.95;;
70806;SDS011;58882;52.170;5.386;2022-11-15T06:39:11;17.38;;;9.15;;
70806;SDS011;58882;52.170;5.386;2022-11-15T06:42:23;19.48;;;9.73;;
70806;SDS011;58882;52.170;5.386;2022-11-15T06:45:22;16.75;;;9.48;;
70806;SDS011;58882;52.170;5.386;2022-11-15T06:48:27;20.63;;;10.45;;
70806;SDS011;58882;52.170;5.386;2022-11-15T06:51:26;18.77;;;10.18;;
70806;SDS011;58882;52.170;5.386;2022-11-15T06:54:31;17.58;;;10.68;;
70806;SDS011;58882;52.170;5.386;2022-11-15T06:57:30;19.23;;;10.00;;
70806;SDS011;58882;52.170;5.386;2022-11-15T07:00:35;20.70;;;10.65;;
70806;SDS011;58882;52.170;5.386;2022-11-15T07:03:34;20.42;;;10.05;;
70806;SDS011;58882;52.170;5.386;2022-11-15T07:06:47;16.75;;;9.68;;
70806;SDS011;58882;52.170;5.386;2022-11-15T07:09:46;25.50;;;9.35;;
70806;SDS011;58882;52.170;5.386;2022-11-15T07:12:52;16.15;;;7.70;;
70806;SDS011;58882;52.170;5.386;2022-11-15T07:15:53;17.73;;;8.48;;
70806;SDS011;58882;52.170;5.386;2022-11-15T07:19:05;21.15;;;7.85;;
70806;SDS011;58882;52.170;5.386;2022-11-15T07:21:57;15.93;;;8.80;;
70806;SDS011;58882;52.170;5.386;2022-11-15T07:25:09;14.60;;;8.30;;
70806;SDS011;58882;52.170;5.386;2022-11-15T07:28:01;16.98;;;8.15;;
70806;SDS011;58882;52.170;5.386;2022-11-15T07:31:13;13.20;;;7.75;;
70806;SDS011;58882;52.170;5.386;2022-11-15T07:34:05;12.57;;;7.15;;
70806;SDS011;58882;52.170;5.386;2022-11-15T07:37:17;17.30;;;8.43;;
70806;SDS011;58882;52.170;5.386;2022-11-15T07:40:09;15.50;;;8.38;;
70806;SDS011;58882;52.170;5.386;2022-11-15T07:43:21;14.90;;;7.65;;
70806;SDS011;58882;52.170;5.386;2022-11-15T07:46:20;14.70;;;8.30;;
70806;SDS011;58882;52.170;5.386;2022-11-15T07:49:25;13.38;;;7.10;;
70806;SDS011;58882;52.170;5.386;2022-11-15T07:52:24;14.20;;;7.53;;
70806;SDS011;58882;52.170;5.386;2022-11-15T07:55:29;14.25;;;7.82;;
70806;SDS011;58882;52.170;5.386;2022-11-15T07:58:28;17.13;;;7.85;;
70806;SDS011;58882;52.170;5.386;2022-11-15T08:01:40;12.60;;;7.18;;
70806;SDS011;58882;52.170;5.386;2022-11-15T08:04:39;15.13;;;7.35;;
70806;SDS011;58882;52.170;5.386;2022-11-15T08:07:43;13.75;;;7.25;;
70806;SDS011;58882;52.170;5.386;2022-11-15T08:10:43;11.23;;;6.82;;
70806;SDS011;58882;52.170;5.386;2022-11-15T08:13:48;13.25;;;6.97;;
70806;SDS011;58882;52.170;5.386;2022-11-15T08:16:47;13.80;;;6.97;;
70806;SDS011;58882;52.170;5.386;2022-11-15T08:19:59;11.60;;;6.47;;
70806;SDS011;58882;52.170;5.386;2022-11-15T08:22:51;13.18;;;6.50;;
70806;SDS011;58882;52.170;5.386;2022-11-15T08:26:04;14.35;;;6.85;;
70806;SDS011;58882;52.170;5.386;2022-11-15T08:28:56;12.93;;;6.55;;
70806;SDS011;58882;52.170;5.386;2022-11-15T08:32:09;12.60;;;6.25;;
70806;SDS011;58882;52.170;5.386;2022-11-15T08:35:02;12.20;;;6.07;;
70806;SDS011;58882;52.170;5.386;2022-11-15T08:38:14;12.45;;;6.05;;
70806;SDS011;58882;52.170;5.386;2022-11-15T08:41:06;12.15;;;5.88;;
70806;SDS011;58882;52.170;5.386;2022-11-15T08:44:21;13.02;;;5.95;;
70806;SDS011;58882;52.170;5.386;2022-11-15T08:47:15;12.25;;;5.53;;
70806;SDS011;58882;52.170;5.386;2022-11-15T08:50:26;12.05;;;6.10;;
70806;SDS011;58882;52.170;5.386;2022-11-15T08:53:25;12.85;;;5.75;;
70806;SDS011;58882;52.170;5.386;2022-11-15T08:56:30;11.13;;;5.95;;
70806;SDS011;58882;52.170;5.386;2022-11-15T08:59:29;11.23;;;5.75;;
70806;SDS011;58882;52.170;5.386;2022-11-15T09:05:35;10.75;;;5.55;;
70806;SDS011;58882;52.170;5.386;2022-11-15T09:08:41;11.57;;;5.90;;
70806;SDS011;58882;52.170;5.386;2022-11-15T09:11:40;13.38;;;5.30;;
70806;SDS011;58882;52.170;5.386;2022-11-15T09:17:45;16.70;;;6.40;;
70806;SDS011;58882;52.170;5.386;2022-11-15T09:20:58;10.75;;;5.50;;
70806;SDS011;58882;52.170;5.386;2022-11-15T09:23:57;10.57;;;5.57;;
70806;SDS011;58882;52.170;5.386;2022-11-15T09:27:02;11.75;;;5.63;;
70806;SDS011;58882;52.170;5.386;2022-11-15T09:30:01;12.73;;;5.40;;
70806;SDS011;58882;52.170;5.386;2022-11-15T09:33:13;13.27;;;5.68;;
70806;SDS011;58882;52.170;5.386;2022-11-15T09:36:06;10.95;;;5.13;;
70806;SDS011;58882;52.170;5.386;2022-11-15T09:39:19;12.07;;;5.22;;
70806;SDS011;58882;52.170;5.386;2022-11-15T09:46:04;11.02;;;5.47;;
70806;SDS011;58882;52.170;5.386;2022-11-15T09:49:34;9.55;;;5.00;;
70806;SDS011;58882;52.170;5.386;2022-11-15T09:52:18;10.25;;;4.68;;
70806;SDS011;58882;52.170;5.386;2022-11-15T09:55:14;10.38;;;4.95;;
70806;SDS011;58882;52.170;5.386;2022-11-15T09:57:56;9.65;;;4.82;;
70806;SDS011;58882;52.170;5.386;2022-11-15T10:01:16;11.07;;;4.75;;
70806;SDS011;58882;52.170;5.386;2022-11-15T10:04:08;10.52;;;4.85;;
70806;SDS011;58882;52.170;5.386;2022-11-15T10:07:02;10.05;;;4.93;;
70806;SDS011;58882;52.170;5.386;2022-11-15T10:10:26;9.68;;;4.32;;
70806;SDS011;58882;52.170;5.386;2022-11-15T10:13:00;8.23;;;4.15;;
70806;SDS011;58882;52.170;5.386;2022-11-15T10:18:49;8.95;;;3.90;;
70806;SDS011;58882;52.170;5.386;2022-11-15T10:24:40;10.82;;;4.20;;
70806;SDS011;58882;52.170;5.386;2022-11-15T10:27:38;10.07;;;4.28;;
70806;SDS011;58882;52.170;5.386;2022-11-15T10:30:14;7.38;;;3.60;;
70806;SDS011;58882;52.170;5.386;2022-11-15T10:33:16;8.68;;;4.07;;
70806;SDS011;58882;52.170;5.386;2022-11-15T10:38:56;6.45;;;3.40;;
70806;SDS011;58882;52.170;5.386;2022-11-15T10:41:50;7.65;;;3.42;;
70806;SDS011;58882;52.170;5.386;2022-11-15T10:44:34;8.30;;;3.20;;
70806;SDS011;58882;52.170;5.386;2022-11-15T10:50:28;6.18;;;3.03;;
70806;SDS011;58882;52.170;5.386;2022-11-15T10:53:27;6.88;;;2.70;;
70806;SDS011;58882;52.170;5.386;2022-11-15T10:56:13;6.28;;;2.67;;
70806;SDS011;58882;52.170;5.386;2022-11-15T10:59:01;6.70;;;2.92;;
70806;SDS011;58882;52.170;5.386;2022-11-15T11:04:44;8.52;;;2.90;;
70806;SDS011;58882;52.170;5.386;2022-11-15T11:07:30;6.50;;;2.50;;
70806;SDS011;58882;52.170;5.386;2022-11-15T11:10:20;5.78;;;2.60;;
70806;SDS011;58882;52.170;5.386;2022-11-15T11:16:22;5.80;;;2.47;;
70806;SDS011;58882;52.170;5.386;2022-11-15T11:28:45;5.97;;;2.38;;
70806;SDS011;58882;52.170;5.386;2022-11-15T11:37:12;5.03;;;2.40;;
70806;SDS011;58882;52.170;5.386;2022-11-15T11:48:36;4.82;;;2.20;;
70806;SDS011;58882;52.170;5.386;2022-11-15T11:51:40;4.28;;;2.10;;
70806;SDS011;58882;52.170;5.386;2022-11-15T11:54:32;4.28;;;2.10;;
70806;SDS011;58882;52.170;5.386;2022-11-15T11:57:30;7.22;;;2.03;;
70806;SDS011;58882;52.170;5.386;2022-11-15T12:00:21;4.57;;;2.00;;
70806;SDS011;58882;52.170;5.386;2022-11-15T12:03:35;3.80;;;1.83;;
70806;SDS011;58882;52.170;5.386;2022-11-15T12:09:33;6.90;;;2.00;;
70806;SDS011;58882;52.170;5.386;2022-11-15T12:15:47;4.45;;;1.98;;
70806;SDS011;58882;52.170;5.386;2022-11-15T12:18:41;4.28;;;1.83;;
70806;SDS011;58882;52.170;5.386;2022-11-15T12:24:22;5.32;;;1.50;;
70806;SDS011;58882;52.170;5.386;2022-11-15T12:30:44;4.85;;;1.50;;
70806;SDS011;58882;52.170;5.386;2022-11-15T12:33:29;4.88;;;1.48;;
70806;SDS011;58882;52.170;5.386;2022-11-15T12:36:04;3.72;;;1.48;;
70806;SDS011;58882;52.170;5.386;2022-11-15T12:39:05;5.20;;;1.60;;
70806;SDS011;58882;52.170;5.386;2022-11-15T12:47:33;2.47;;;1.20;;
70806;SDS011;58882;52.170;5.386;2022-11-15T12:59:00;4.18;;;1.10;;
70806;SDS011;58882;52.170;5.386;2022-11-15T13:04:29;6.10;;;1.30;;
70806;SDS011;58882;52.170;5.386;2022-11-15T13:07:55;5.78;;;1.30;;
70806;SDS011;58882;52.170;5.386;2022-11-15T13:10:32;4.78;;;1.42;;
70806;SDS011;58882;52.170;5.386;2022-11-15T13:13:13;3.72;;;1.23;;
70806;SDS011;58882;52.170;5.386;2022-11-15T13:16:32;4.32;;;1.20;;
70806;SDS011;58882;52.170;5.386;2022-11-15T13:19:13;2.97;;;1.20;;
70806;SDS011;58882;52.170;5.386;2022-11-15T13:22:04;3.08;;;1.10;;
70806;SDS011;58882;52.170;5.386;2022-11-15T13:25:14;4.30;;;1.30;;
70806;SDS011;58882;52.170;5.386;2022-11-15T13:30:56;3.00;;;1.20;;
70806;SDS011;58882;52.170;5.386;2022-11-15T13:33:57;3.30;;;1.15;;
70806;SDS011;58882;52.170;5.386;2022-11-15T13:36:33;3.90;;;1.27;;
70806;SDS011;58882;52.170;5.386;2022-11-15T13:39:32;3.78;;;1.27;;
70806;SDS011;58882;52.170;5.386;2022-11-15T13:42:27;6.40;;;1.30;;
70806;SDS011;58882;52.170;5.386;2022-11-15T13:47:59;3.53;;;1.30;;
70806;SDS011;58882;52.170;5.386;2022-11-15T13:50:42;5.38;;;1.40;;
70806;SDS011;58882;52.170;5.386;2022-11-15T13:53:30;4.93;;;1.42;;
70806;SDS011;58882;52.170;5.386;2022-11-15T13:56:13;3.17;;;1.25;;
70806;SDS011;58882;52.170;5.386;2022-11-15T13:58:55;5.38;;;1.48;;
70806;SDS011;58882;52.170;5.386;2022-11-15T14:01:49;4.55;;;1.42;;
70806;SDS011;58882;52.170;5.386;2022-11-15T14:04:25;5.28;;;1.40;;
70806;SDS011;58882;52.170;5.386;2022-11-15T14:07:21;5.53;;;1.23;;
70806;SDS011;58882;52.170;5.386;2022-11-15T14:09:56;3.35;;;1.40;;
70806;SDS011;58882;52.170;5.386;2022-11-15T14:15:32;4.95;;;1.40;;
70806;SDS011;58882;52.170;5.386;2022-11-15T14:31:11;4.50;;;1.23;;
70806;SDS011;58882;52.170;5.386;2022-11-15T14:33:47;4.45;;;1.27;;
70806;SDS011;58882;52.170;5.386;2022-11-15T14:36:41;6.68;;;1.20;;
70806;SDS011;58882;52.170;5.386;2022-11-15T14:39:14;3.72;;;1.20;;
70806;SDS011;58882;52.170;5.386;2022-11-15T14:42:10;2.90;;;1.17;;
70806;SDS011;58882;52.170;5.386;2022-11-15T14:47:37;2.72;;;1.23;;
70806;SDS011;58882;52.170;5.386;2022-11-15T14:50:20;3.60;;;1.40;;
70806;SDS011;58882;52.170;5.386;2022-11-15T14:53:15;3.55;;;1.10;;
70806;SDS011;58882;52.170;5.386;2022-11-15T14:55:56;3.80;;;1.30;;
70806;SDS011;58882;52.170;5.386;2022-11-15T14:58:43;3.08;;;1.10;;
70806;SDS011;58882;52.170;5.386;2022-11-15T15:01:25;2.70;;;1.20;;
70806;SDS011;58882;52.170;5.386;2022-11-15T15:04:20;2.28;;;1.00;;
70806;SDS011;58882;52.170;5.386;2022-11-15T15:09:47;2.80;;;1.25;;
70806;SDS011;58882;52.170;5.386;2022-11-15T15:12:42;4.18;;;1.35;;
70806;SDS011;58882;52.170;5.386;2022-11-15T15:18:16;4.65;;;1.20;;
70806;SDS011;58882;52.170;5.386;2022-11-15T15:21:10;7.53;;;1.27;;
70806;SDS011;58882;52.170;5.386;2022-11-15T15:24:13;3.25;;;0.98;;
70806;SDS011;58882;52.170;5.386;2022-11-15T15:27:00;4.40;;;1.00;;
70806;SDS011;58882;52.170;5.386;2022-11-15T15:32:27;2.83;;;1.02;;
70806;SDS011;58882;52.170;5.386;2022-11-15T15:37:57;3.53;;;0.95;;
70806;SDS011;58882;52.170;5.386;2022-11-15T15:40:38;2.78;;;0.90;;
70806;SDS011;58882;52.170;5.386;2022-11-15T15:46:16;2.42;;;1.00;;
70806;SDS011;58882;52.170;5.386;2022-11-15T15:49:04;4.13;;;1.13;;
70806;SDS011;58882;52.170;5.386;2022-11-15T15:51:58;3.42;;;1.20;;
70806;SDS011;58882;52.170;5.386;2022-11-15T15:54:39;2.60;;;0.90;;
70806;SDS011;58882;52.170;5.386;2022-11-15T15:57:33;2.65;;;1.10;;
70806;SDS011;58882;52.170;5.386;2022-11-15T16:03:00;6.65;;;1.27;;
70806;SDS011;58882;52.170;5.386;2022-11-15T16:08:27;2.67;;;1.02;;
70806;SDS011;58882;52.170;5.386;2022-11-15T16:11:28;4.50;;;1.10;;
70806;SDS011;58882;52.170;5.386;2022-11-15T16:17:02;6.30;;;1.23;;
70806;SDS011;58882;52.170;5.386;2022-11-15T16:19:49;2.92;;;0.98;;
70806;SDS011;58882;52.170;5.386;2022-11-15T16:22:22;5.03;;;1.10;;
70806;SDS011;58882;52.170;5.386;2022-11-15T16:27:56;5.03;;;1.00;;
70806;SDS011;58882;52.170;5.386;2022-11-15T16:30:43;4.22;;;1.27;;
70806;SDS011;58882;52.170;5.386;2022-11-15T16:33:28;6.65;;;1.80;;
70806;SDS011;58882;52.170;5.386;2022-11-15T16:36:18;5.97;;;1.23;;
70806;SDS011;58882;52.170;5.386;2022-11-15T16:39:02;4.32;;;1.30;;
70806;SDS011;58882;52.170;5.386;2022-11-15T16:44:36;5.28;;;1.15;;
70806;SDS011;58882;52.170;5.386;2022-11-15T16:47:23;4.05;;;1.20;;
70806;SDS011;58882;52.170;5.386;2022-11-15T16:49:56;4.18;;;1.15;;
70806;SDS011;58882;52.170;5.386;2022-11-15T16:55:30;3.25;;;1.20;;
70806;SDS011;58882;52.170;5.386;2022-11-15T16:58:17;2.88;;;1.30;;
70806;SDS011;58882;52.170;5.386;2022-11-15T17:00:51;5.10;;;1.40;;
70806;SDS011;58882;52.170;5.386;2022-11-15T17:03:45;4.43;;;1.42;;
70806;SDS011;58882;52.170;5.386;2022-11-15T17:06:19;4.95;;;1.20;;
70806;SDS011;58882;52.170;5.386;2022-11-15T17:09:20;3.17;;;1.10;;
70806;SDS011;58882;52.170;5.386;2022-11-15T17:12:01;3.92;;;1.23;;
70806;SDS011;58882;52.170;5.386;2022-11-15T17:14:48;4.95;;;1.50;;
70806;SDS011;58882;52.170;5.386;2022-11-15T17:20:16;5.00;;;1.80;;
70806;SDS011;58882;52.170;5.386;2022-11-15T17:22:57;4.43;;;1.48;;
70806;SDS011;58882;52.170;5.386;2022-11-15T17:25:57;5.53;;;1.40;;
70806;SDS011;58882;52.170;5.386;2022-11-15T17:28:58;5.22;;;1.60;;
70806;SDS011;58882;52.170;5.386;2022-11-15T17:31:55;3.85;;;1.42;;
70806;SDS011;58882;52.170;5.386;2022-11-15T17:37:29;3.22;;;1.25;;
70806;SDS011;58882;52.170;5.386;2022-11-15T17:40:02;2.83;;;1.33;;
70806;SDS011;58882;52.170;5.386;2022-11-15T17:45:39;4.38;;;1.42;;
70806;SDS011;58882;52.170;5.386;2022-11-15T17:48:26;3.88;;;1.60;;
70806;SDS011;58882;52.170;5.386;2022-11-15T17:51:02;5.20;;;1.40;;
70806;SDS011;58882;52.170;5.386;2022-11-15T17:53:58;4.70;;;1.73;;
70806;SDS011;58882;52.170;5.386;2022-11-15T17:59:25;4.90;;;1.88;;
70806;SDS011;58882;52.170;5.386;2022-11-15T18:04:52;5.82;;;1.80;;
70806;SDS011;58882;52.170;5.386;2022-11-15T18:10:19;6.53;;;1.90;;
70806;SDS011;58882;52.170;5.386;2022-11-15T18:12:59;5.78;;;1.80;;
70806;SDS011;58882;52.170;5.386;2022-11-15T18:15:52;6.82;;;2.15;;
70806;SDS011;58882;52.170;5.386;2022-11-15T18:18:34;4.85;;;1.90;;
70806;SDS011;58882;52.170;5.386;2022-11-15T18:21:22;4.80;;;1.73;;
70806;SDS011;58882;52.170;5.386;2022-11-15T18:24:03;5.80;;;2.08;;
70806;SDS011;58882;52.170;5.386;2022-11-15T18:29:31;3.47;;;1.80;;
70806;SDS011;58882;52.170;5.386;2022-11-15T18:35:04;6.28;;;2.20;;
70806;SDS011;58882;52.170;5.386;2022-11-15T18:37:52;5.78;;;2.10;;
70806;SDS011;58882;52.170;5.386;2022-11-15T18:40:27;2.95;;;1.60;;
70806;SDS011;58882;52.170;5.386;2022-11-15T18:43:21;5.18;;;2.05;;
70806;SDS011;58882;52.170;5.386;2022-11-15T18:45:54;5.82;;;1.92;;
70806;SDS011;58882;52.170;5.386;2022-11-15T18:48:55;4.47;;;1.88;;
70806;SDS011;58882;52.170;5.386;2022-11-15T18:51:29;5.45;;;2.15;;
70806;SDS011;58882;52.170;5.386;2022-11-15T18:54:26;4.68;;;2.28;;
70806;SDS011;58882;52.170;5.386;2022-11-15T18:57:03;5.93;;;2.20;;
70806;SDS011;58882;52.170;5.386;2022-11-15T19:02:30;6.38;;;2.33;;
70806;SDS011;58882;52.170;5.386;2022-11-15T19:07:57;5.22;;;2.40;;
70806;SDS011;58882;52.170;5.386;2022-11-15T19:13:31;6.25;;;2.40;;
70806;SDS011;58882;52.170;5.386;2022-11-15T19:16:19;5.45;;;2.60;;
70806;SDS011;58882;52.170;5.386;2022-11-15T19:21:47;5.63;;;2.30;;
70806;SDS011;58882;52.170;5.386;2022-11-15T19:27:14;8.35;;;2.42;;
70806;SDS011;58882;52.170;5.386;2022-11-15T19:32:48;5.45;;;2.28;;
70806;SDS011;58882;52.170;5.386;2022-11-15T19:38:15;6.72;;;2.42;;
70806;SDS011;58882;52.170;5.386;2022-11-15T19:43:57;5.13;;;2.42;;
70806;SDS011;58882;52.170;5.386;2022-11-15T19:46:37;7.15;;;2.72;;
70806;SDS011;58882;52.170;5.386;2022-11-15T19:49:24;6.75;;;2.58;;
70806;SDS011;58882;52.170;5.386;2022-11-15T19:54:51;8.10;;;2.58;;
70806;SDS011;58882;52.170;5.386;2022-11-15T20:00:18;6.18;;;2.85;;
70806;SDS011;58882;52.170;5.386;2022-11-15T20:05:45;6.18;;;2.70;;
70806;SDS011;58882;52.170;5.386;2022-11-15T20:08:25;6.93;;;2.80;;
70806;SDS011;58882;52.170;5.386;2022-11-15T20:11:13;5.95;;;2.80;;
70806;SDS011;58882;52.170;5.386;2022-11-15T20:13:57;6.45;;;2.80;;
70806;SDS011;58882;52.170;5.386;2022-11-15T20:16:46;7.22;;;2.85;;
70806;SDS011;58882;52.170;5.386;2022-11-15T20:19:26;7.18;;;3.03;;
70806;SDS011;58882;52.170;5.386;2022-11-15T20:24:53;5.60;;;2.78;;
70806;SDS011;58882;52.170;5.386;2022-11-15T20:30:27;6.60;;;3.03;;
70806;SDS011;58882;52.170;5.386;2022-11-15T20:33:14;7.13;;;3.30;;
70806;SDS011;58882;52.170;5.386;2022-11-15T20:35:55;6.50;;;3.10;;
70806;SDS011;58882;52.170;5.386;2022-11-15T20:41:36;6.88;;;2.90;;
70806;SDS011;58882;52.170;5.386;2022-11-15T20:47:03;9.20;;;3.50;;
70806;SDS011;58882;52.170;5.386;2022-11-15T20:49:44;7.32;;;3.72;;
70806;SDS011;58882;52.170;5.386;2022-11-15T20:52:59;8.13;;;3.13;;
70806;SDS011;58882;52.170;5.386;2022-11-15T20:58:27;6.60;;;3.13;;
70806;SDS011;58882;52.170;5.386;2022-11-15T21:01:09;7.00;;;3.33;;
70806;SDS011;58882;52.170;5.386;2022-11-15T21:04:01;6.88;;;3.40;;
70806;SDS011;58882;52.170;5.386;2022-11-15T21:09:28;6.57;;;3.40;;
70806;SDS011;58882;52.170;5.386;2022-11-15T21:12:28;7.47;;;3.25;;
70806;SDS011;58882;52.170;5.386;2022-11-15T21:15:16;6.13;;;3.33;;
70806;SDS011;58882;52.170;5.386;2022-11-15T21:17:57;5.43;;;2.88;;
70806;SDS011;58882;52.170;5.386;2022-11-15T21:20:44;6.70;;;3.05;;
70806;SDS011;58882;52.170;5.386;2022-11-15T21:26:11;7.20;;;3.30;;
70806;SDS011;58882;52.170;5.386;2022-11-15T21:31:38;6.13;;;3.50;;